Airfield :
LOGIN :

Register | Disclaimer

   EN    FR    IT 

 










Legend :    VFR   Marginal VFR   IFR   Intensive IFR   Very Intensive IFR
Visi :
Ceiling :
>= 8 km
>= 3000ft
5 to 8 km
1000 to 3000 ft
1500m to 5 km
500 to 1000 ft
800 to 1500m
200 to 500 ft
< 800m
< 200 ft
Symbols :   Thunderstorms  Fog  Heavy snow  Heavy precipitations  Wind > 20 kt
SIGMETs :     Misc.  Thunderstorms  Icing  Turbulence  Mountain Waves  Volcanic Ashes






- Airport Elevation : 336 ft
- IATA code : GCI


EGJB - Guernsey

CURRENT METAR :
  • 220050Z 03012KT 9999 FEW001 SCT004 BKN007 12/11 Q1015

EXPIRED METARs :
  • 212350Z 03012KT 5000 -DZ FEW001 BKN004 12/11 Q1015
  • 212250Z 03014KT 4000 -DZ BR FEW001 BKN003 11/11 Q1014 RERA REDZ

TAF TAF EGJB
Valid from the 22 at 00:00 until the 22 at 09:00 UTC


212303Z 2200/2209 04016KT 9999 SCT005 OVC010
TEMPO 2200/2209 03019G30KT 6000 -DZ BKN005
PROB40
TEMPO 2200/2209 2000 RADZ BKN002
ATIS : +44 1481 238 957



MET'MAP, your aeronautical weather chart ! - Copyright ORBIFLY December 2007 - Disclaimer

ORBIFLY MET'MAP TEAM :

Programming & Development : Alexandra Zaïnal
Concept & original design : Baudouin d'Aumeries
Assistance for programming : Marc-Olivier Méhu
Technical & hardware support : Manuel Goepfert

Contact : metmap@orbifly.com




SOURCES & CREDITS :

   NOAA